Time;durP1;ratioP1;P1;durP2;ratioP2;P2;SDS_P1;SDS_P2;PMS_P1;PMS_P2;Temp;Humidity;BMP_temperature;BMP_pressure;BME280_temperature;BME280_humidity;BME280_pressure;Samples;Min_cycle;Max_cycle;Signal;HPM_P1;HPM_P2
2022/03/16 00:01:05;;;;;;;5.50;3.20;;;;;;;-145.69;100.00;72684.06;5074650;28;20602;-78
2022/03/16 00:03:33;;;;;;;7.67;3.27;;;;;;;-145.69;100.00;72684.06;5074656;28;20222;-78
2022/03/16 00:06:00;;;;;;;13.60;3.17;;;;;;;-145.69;100.00;72703.97;5074569;28;20605;-78
2022/03/16 00:08:28;;;;;;;7.53;3.30;;;;;;;-145.69;100.00;72701.97;5073805;28;20199;-78
2022/03/16 00:10:55;;;;;;;10.97;3.90;;;;;;;-145.69;100.00;72700.00;5074031;28;20194;-78
2022/03/16 00:13:21;;;;;;;21.50;3.77;;;;;;;-145.69;100.00;72703.97;5074179;28;20238;-77
2022/03/16 00:15:48;;;;;;;9.37;4.20;;;;;;;-145.69;100.00;72698.00;5074110;28;20592;-77
2022/03/16 00:18:14;;;;;;;22.57;3.97;;;;;;;-145.69;100.00;72696.00;5073908;28;20199;-78
2022/03/16 00:20:42;;;;;;;13.13;3.87;;;;;;;-145.69;100.00;72696.00;5069832;28;20199;-77
2022/03/16 00:23:08;;;;;;;13.00;3.83;;;;;;;-145.69;100.00;72680.09;5053877;28;20288;-77
2022/03/16 00:25:35;;;;;;;14.03;3.53;;;;;;;-145.69;100.00;72680.09;5053783;28;20662;-77
2022/03/16 00:28:01;;;;;;;16.50;3.60;;;;;;;-145.69;100.00;72700.00;5070056;28;20244;-78
2022/03/16 00:30:28;;;;;;;10.43;3.43;;;;;;;-145.69;100.00;72707.97;5073089;28;20605;-77
2022/03/16 00:32:54;;;;;;;16.17;3.50;;;;;;;-145.69;100.00;72715.91;5073983;28;20245;-77
2022/03/16 00:35:21;;;;;;;11.10;3.40;;;;;;;-145.69;100.00;72723.88;5073948;28;20203;-77
2022/03/16 00:37:49;;;;;;;11.70;3.37;;;;;;;-145.69;100.00;72731.84;5073825;28;20199;-78
2022/03/16 00:40:15;;;;;;;6.60;3.60;;;;;;;-145.69;100.00;72735.81;5073441;28;20203;-77
2022/03/16 00:42:41;;;;;;;10.60;3.33;;;;;;;-145.69;100.00;72727.88;5073823;28;20717;-77
2022/03/16 00:45:10;;;;;;;8.50;3.53;;;;;;;-145.69;100.00;72723.88;5073497;28;20260;-77
2022/03/16 00:47:36;;;;;;;9.00;3.67;;;;;;;-145.69;100.00;72717.91;5073584;28;20205;-78
2022/03/16 00:50:03;;;;;;;11.10;3.47;;;;;;;-145.69;100.00;72723.88;5073657;28;20203;-78
2022/03/16 00:52:29;;;;;;;9.97;3.70;;;;;;;-145.69;100.00;72725.88;5073291;28;20202;-78
2022/03/16 00:54:57;;;;;;;11.50;3.63;;;;;;;-145.69;100.00;72739.81;5073666;28;20202;-78
2022/03/16 00:57:23;;;;;;;8.07;3.93;;;;;;;-145.69;100.00;72745.78;5072999;28;20554;-77
2022/03/16 00:59:50;;;;;;;7.47;3.23;;;;;;;-145.69;100.00;72763.69;5073733;28;20199;-77
2022/03/16 01:02:16;;;;;;;6.63;2.93;;;;;;;-145.69;100.00;72777.63;5073597;28;20223;-78
2022/03/16 01:04:43;;;;;;;9.23;3.43;;;;;;;-145.69;100.00;72783.59;5073234;28;20584;-77
2022/03/16 01:07:09;;;;;;;7.43;3.17;;;;;;;-145.69;100.00;72775.63;5073659;28;20202;-77
2022/03/16 01:09:36;;;;;;;8.57;4.03;;;;;;;-145.69;100.00;72775.63;5073365;28;20202;-77
2022/03/16 01:12:05;;;;;;;10.97;3.57;;;;;;;-145.69;100.00;72779.63;5073343;28;20199;-77
2022/03/16 01:14:31;;;;;;;12.57;3.50;;;;;;;-145.69;100.00;72789.56;5072984;28;20318;-77
2022/03/16 01:16:58;;;;;;;7.67;3.43;;;;;;;-145.69;100.00;72793.56;5073154;28;20202;-77
2022/03/16 01:19:24;;;;;;;7.43;3.27;;;;;;;-145.69;100.00;72793.56;5073409;28;20569;-77
2022/03/16 01:21:50;;;;;;;8.50;3.20;;;;;;;-145.69;100.00;72795.53;5073370;28;20199;-77
2022/03/16 01:24:17;;;;;;;9.00;3.07;;;;;;;-145.69;100.00;72797.53;5073290;28;20230;-78
2022/03/16 01:26:43;;;;;;;5.93;3.40;;;;;;;-145.69;100.00;72799.53;5072834;28;20194;-77
2022/03/16 01:29:11;;;;;;;8.07;3.60;;;;;;;-145.69;100.00;72795.53;5073350;28;20576;-78
2022/03/16 01:31:38;;;;;;;8.80;3.63;;;;;;;-145.69;100.00;72795.53;5073181;28;20198;-78
2022/03/16 01:34:04;;;;;;;7.77;4.33;;;;;;;-145.69;100.00;72795.53;5073065;28;20199;-77
2022/03/16 01:36:31;;;;;;;11.27;5.23;;;;;;;-145.69;100.00;72783.59;5073026;28;20198;-77
2022/03/16 01:38:57;;;;;;;9.73;4.10;;;;;;;-145.69;100.00;72791.56;5072810;28;20244;-77
2022/03/16 01:41:23;;;;;;;9.30;4.10;;;;;;;-145.69;100.00;72795.53;5073076;28;20248;-77
2022/03/16 01:43:53;;;;;;;6.33;3.13;;;;;;;-145.69;100.00;72803.50;5077042;28;20233;-77
2022/03/16 01:46:21;;;;;;;8.93;3.53;;;;;;;-145.69;100.00;72809.47;5076690;28;20297;-77
2022/03/16 01:48:48;;;;;;;9.13;3.07;;;;;;;-145.69;100.00;72811.47;5076949;28;20276;-77
2022/03/16 01:51:14;;;;;;;8.63;3.70;;;;;;;-145.69;100.00;72815.44;5076725;28;20206;-77
2022/03/16 01:53:41;;;;;;;13.70;4.07;;;;;;;-145.69;100.00;72803.50;5077059;28;20248;-78
2022/03/16 01:56:09;;;;;;;10.60;3.73;;;;;;;-145.69;100.00;72809.47;5076307;28;20202;-77
2022/03/16 01:58:35;;;;;;;7.67;3.87;;;;;;;-145.69;100.00;72795.53;5076632;28;20813;-77
2022/03/16 02:01:02;;;;;;;13.40;4.27;;;;;;;-145.69;100.00;72789.56;5076749;28;20571;-77
2022/03/16 02:03:30;;;;;;;8.30;4.23;;;;;;;-145.69;100.00;72767.69;5076325;28;20231;-77
2022/03/16 02:05:56;;;;;;;8.33;4.30;;;;;;;-145.69;100.00;72769.66;5076524;28;20565;-77
2022/03/16 02:08:23;;;;;;;13.77;4.95;;;;;;;-145.69;100.00;72775.63;5075480;28;20434;-77
2022/03/16 02:10:49;;;;;;;20.23;4.00;;;;;;;-145.69;100.00;72781.59;5076459;28;20585;-77
2022/03/16 02:13:16;;;;;;;11.57;3.63;;;;;;;-145.69;100.00;72797.53;5076414;28;20203;-77
2022/03/16 02:15:42;;;;;;;11.50;3.60;;;;;;;-145.69;100.00;72815.44;5074200;28;20206;-77
2022/03/16 02:18:09;;;;;;;9.50;3.50;;;;;;;-145.69;100.00;72823.41;5057351;28;20200;-77
2022/03/16 02:20:37;;;;;;;13.70;3.57;;;;;;;-145.69;100.00;72833.38;5056249;28;20547;-77
2022/03/16 02:23:06;;;;;;;9.60;3.60;;;;;;;-145.69;100.00;72831.38;5055759;28;20229;-77
2022/03/16 02:25:33;;;;;;;11.90;3.77;;;;;;;-145.69;100.00;72843.31;5056413;28;20203;-77
2022/03/16 02:28:00;;;;;;;7.67;3.13;;;;;;;-145.69;100.00;72859.25;5072694;28;20245;-77
2022/03/16 02:30:28;;;;;;;8.50;3.20;;;;;;;-145.69;100.00;72869.19;5076007;28;20703;-77
2022/03/16 02:32:55;;;;;;;5.87;2.97;;;;;;;-145.69;100.00;72891.09;5076004;28;20203;-77
2022/03/16 02:35:22;;;;;;;8.90;3.27;;;;;;;-145.69;100.00;72895.06;5075915;28;20202;-77
2022/03/16 02:37:49;;;;;;;7.00;3.23;;;;;;;-145.69;100.00;72895.06;5075956;28;20244;-77
2022/03/16 02:40:20;;;;;;;8.13;4.07;;;;;;;-145.69;100.00;72891.09;5075941;28;20199;-77
2022/03/16 02:42:46;;;;;;;7.23;3.63;;;;;;;-145.69;100.00;72891.09;5075991;28;20256;-77
2022/03/16 02:45:13;;;;;;;9.82;4.38;;;;;;;-145.69;100.00;72879.16;5075528;28;20439;-77
2022/03/16 02:47:40;;;;;;;11.00;4.67;;;;;;;-145.69;100.00;72855.25;5075954;28;20216;-77
2022/03/16 02:50:08;;;;;;;16.53;4.20;;;;;;;-145.69;100.00;72845.31;5076047;28;20234;-77
2022/03/16 02:52:34;;;;;;;16.97;4.80;;;;;;;-145.69;100.00;72849.28;5075447;28;20672;-77
2022/03/16 02:55:01;;;;;;;9.87;4.37;;;;;;;-145.69;100.00;72859.25;5075098;28;20203;-78
2022/03/16 02:57:28;;;;;;;10.90;4.70;;;;;;;-145.69;100.00;72847.28;5075644;28;20202;-78
2022/03/16 02:59:55;;;;;;;10.77;4.47;;;;;;;-145.69;100.00;72825.41;5075754;28;20203;-77
2022/03/16 03:02:22;;;;;;;8.60;4.17;;;;;;;-145.69;100.00;72835.34;5075679;28;20203;-78
2022/03/16 03:04:48;;;;;;;11.47;4.80;;;;;;;-145.69;100.00;72837.34;5075420;28;20223;-78
2022/03/16 03:07:15;;;;;;;9.57;4.30;;;;;;;-145.69;100.00;72833.38;5076010;28;20199;-78
2022/03/16 03:09:41;;;;;;;8.47;4.17;;;;;;;-145.69;100.00;72847.28;5075674;28;20207;-78
2022/03/16 03:12:09;;;;;;;12.70;4.30;;;;;;;-145.69;100.00;72847.28;5075462;28;20787;-78
2022/03/16 03:14:36;;;;;;;10.13;4.43;;;;;;;-145.69;100.00;72835.34;5075280;28;20272;-77
2022/03/16 03:17:04;;;;;;;10.10;4.67;;;;;;;-145.69;100.00;72819.44;5075577;28;20299;-78
2022/03/16 03:19:30;;;;;;;6.57;3.87;;;;;;;-145.69;100.00;72837.34;5075003;28;20596;-78
2022/03/16 03:21:56;;;;;;;10.80;4.00;;;;;;;-145.69;100.00;72851.28;5075363;28;20199;-78
2022/03/16 03:24:23;;;;;;;10.43;4.50;;;;;;;-145.69;100.00;72849.28;5074798;28;20708;-78
2022/03/16 03:26:49;;;;;;;11.00;4.53;;;;;;;-145.69;100.00;72849.28;5075155;28;20547;-78
2022/03/16 03:29:16;;;;;;;9.50;5.07;;;;;;;-145.69;100.00;72853.28;5074982;28;20202;-79
2022/03/16 03:31:44;;;;;;;12.50;4.53;;;;;;;-145.69;100.00;72857.25;5074979;28;20210;-78
2022/03/16 03:34:11;;;;;;;22.80;5.53;;;;;;;-145.69;100.00;72837.34;5075207;28;20207;-78
2022/03/16 03:36:37;;;;;;;10.60;5.20;;;;;;;-145.69;100.00;72837.34;5075283;28;20202;-77
2022/03/16 03:39:04;;;;;;;9.83;5.17;;;;;;;-145.69;100.00;72845.31;5074961;28;20199;-78
2022/03/16 03:41:30;;;;;;;14.80;5.50;;;;;;;-145.69;100.00;72847.28;5075101;28;20209;-77
2022/03/16 03:43:57;;;;;;;15.97;5.23;;;;;;;-145.69;100.00;72831.38;5074745;28;20609;-77
2022/03/16 03:46:23;;;;;;;8.83;4.77;;;;;;;-145.69;100.00;72829.38;5074759;28;20198;-78
2022/03/16 03:48:51;;;;;;;15.73;5.33;;;;;;;-145.69;100.00;72827.38;5074598;28;20214;-78
2022/03/16 03:51:18;;;;;;;14.13;5.17;;;;;;;-145.69;100.00;72829.38;5074544;28;20684;-77
2022/03/16 03:53:44;;;;;;;12.50;5.23;;;;;;;-145.69;100.00;72841.31;5074534;28;20198;-77
2022/03/16 03:56:11;;;;;;;12.17;5.07;;;;;;;-145.69;100.00;72835.34;5074511;28;20198;-78
2022/03/16 03:58:38;;;;;;;11.47;4.80;;;;;;;-145.69;100.00;72847.28;5074253;28;20252;-78
2022/03/16 04:01:05;;;;;;;12.17;4.80;;;;;;;-145.69;100.00;72851.28;5074178;28;20202;-77
2022/03/16 04:03:32;;;;;;;11.93;5.67;;;;;;;-145.69;100.00;72841.31;5074181;28;20226;-78
2022/03/16 04:05:59;;;;;;;19.80;5.20;;;;;;;-145.69;100.00;72851.28;5073264;28;20199;-77
2022/03/16 04:08:26;;;;;;;10.67;4.40;;;;;;;-145.69;100.00;72857.25;5074098;28;20207;-78
2022/03/16 04:10:53;;;;;;;11.13;4.50;;;;;;;-145.69;100.00;72863.22;5074232;28;20252;-78
2022/03/16 04:13:19;;;;;;;18.50;4.30;;;;;;;-145.69;100.00;72867.19;5073966;28;20254;-78
2022/03/16 04:15:46;;;;;;;13.00;4.67;;;;;;;-145.69;100.00;72867.19;5073834;28;20199;-77
2022/03/16 04:18:12;;;;;;;8.87;5.17;;;;;;;-145.69;100.00;72859.25;5073869;28;20673;-77
2022/03/16 04:20:39;;;;;;;8.17;4.20;;;;;;;-145.69;100.00;72867.19;5056964;28;20666;-77
2022/03/16 04:23:06;;;;;;;8.13;4.80;;;;;;;-145.69;100.00;72877.16;5058834;28;20206;-78
2022/03/16 04:25:33;;;;;;;14.00;5.20;;;;;;;-145.69;100.00;72867.19;5074211;28;20264;-78
2022/03/16 04:27:59;;;;;;;8.73;4.87;;;;;;;-145.69;100.00;72875.16;5073738;28;20596;-77
2022/03/16 04:30:26;;;;;;;19.30;5.60;;;;;;;-145.69;100.00;72861.22;5073892;28;20210;-77
2022/03/16 04:32:52;;;;;;;14.03;5.30;;;;;;;-145.69;100.00;72867.19;5073752;28;20721;-77
2022/03/16 04:35:20;;;;;;;12.37;5.10;;;;;;;-145.69;100.00;72877.16;5073546;28;20198;-77
2022/03/16 04:37:46;;;;;;;12.20;4.90;;;;;;;-145.69;100.00;72897.06;5073704;28;20202;-77
2022/03/16 04:40:14;;;;;;;13.17;4.50;;;;;;;-145.69;100.00;72911.00;5073548;28;20615;-77
2022/03/16 04:42:41;;;;;;;10.30;5.00;;;;;;;-145.69;100.00;72911.00;5073320;28;20203;-77
2022/03/16 04:45:08;;;;;;;10.47;4.83;;;;;;;-145.69;100.00;72914.97;5073587;28;20230;-77
2022/03/16 04:47:35;;;;;;;14.13;5.37;;;;;;;-145.69;100.00;72922.94;5073511;28;20202;-78
2022/03/16 04:50:01;;;;;;;13.70;5.07;;;;;;;-145.69;100.00;72918.97;5073521;28;20256;-77
2022/03/16 04:52:28;;;;;;;8.80;4.67;;;;;;;-145.69;100.00;72913.00;5073379;28;20598;-77
2022/03/16 04:54:54;;;;;;;12.67;4.10;;;;;;;-145.69;100.00;72916.97;5073066;28;20199;-77
2022/03/16 04:57:22;;;;;;;10.73;4.97;;;;;;;-145.69;100.00;72916.97;5073251;28;20202;-77
2022/03/16 04:59:48;;;;;;;8.97;4.57;;;;;;;-145.69;100.00;72918.97;5073149;28;20195;-78
2022/03/16 05:02:14;;;;;;;8.20;4.70;;;;;;;-145.69;100.00;72914.97;5073394;28;20206;-78
2022/03/16 05:04:41;;;;;;;13.63;5.03;;;;;;;-145.69;100.00;72914.97;5073258;28;20234;-78
2022/03/16 05:07:07;;;;;;;13.03;4.47;;;;;;;-145.69;100.00;72911.00;5073367;28;20199;-77
2022/03/16 05:09:34;;;;;;;7.00;4.40;;;;;;;-145.69;100.00;72914.97;5073232;28;20276;-78
2022/03/16 05:12:00;;;;;;;12.13;4.47;;;;;;;-145.69;100.00;72918.97;5073017;28;20202;-78
2022/03/16 05:14:28;;;;;;;10.90;4.80;;;;;;;-145.69;100.00;72922.94;5072941;28;20234;-78
2022/03/16 05:16:54;;;;;;;10.50;4.70;;;;;;;-145.69;100.00;72934.88;5072968;28;20256;-77
2022/03/16 05:19:23;;;;;;;13.67;4.83;;;;;;;-145.69;100.00;72944.84;5072998;28;20281;-77
2022/03/16 05:21:49;;;;;;;18.47;5.60;;;;;;;-145.69;100.00;72950.81;5072918;28;20248;-77
2022/03/16 05:24:16;;;;;;;12.80;4.47;;;;;;;-145.69;100.00;72956.78;5073090;28;20310;-77
2022/03/16 05:26:42;;;;;;;10.37;4.70;;;;;;;-145.69;100.00;72954.78;5073140;28;20207;-77
2022/03/16 05:29:09;;;;;;;12.47;4.57;;;;;;;-145.69;100.00;72960.75;5073330;28;20604;-77
2022/03/16 05:31:36;;;;;;;10.30;4.67;;;;;;;-145.69;100.00;72970.72;5073221;28;20203;-77
2022/03/16 05:34:03;;;;;;;13.20;4.47;;;;;;;-145.69;100.00;72978.69;5072931;28;20210;-78
2022/03/16 05:36:29;;;;;;;11.80;5.17;;;;;;;-145.69;100.00;72978.69;5072813;28;20543;-78
2022/03/16 05:38:56;;;;;;;14.67;5.33;;;;;;;-145.69;100.00;72976.69;5072805;28;20198;-78
2022/03/16 05:41:22;;;;;;;15.57;5.70;;;;;;;-145.69;100.00;72972.72;5073013;28;20199;-78
2022/03/16 05:43:49;;;;;;;18.37;6.30;;;;;;;-145.69;100.00;72936.88;5072943;28;20233;-78
2022/03/16 05:46:15;;;;;;;16.30;7.00;;;;;;;-145.69;100.00;72930.91;5073003;28;20207;-78
2022/03/16 05:48:43;;;;;;;18.70;6.30;;;;;;;-145.69;100.00;72934.88;5072907;28;20209;-77
2022/03/16 05:51:10;;;;;;;14.80;5.77;;;;;;;-145.69;100.00;72934.88;5072759;28;20198;-77
2022/03/16 05:53:36;;;;;;;15.23;6.03;;;;;;;-145.69;100.00;72934.88;5072492;28;20256;-77
2022/03/16 05:56:03;;;;;;;11.13;5.60;;;;;;;-145.69;100.00;72954.78;5072884;28;20199;-77
2022/03/16 05:58:30;;;;;;;11.13;5.43;;;;;;;-145.69;100.00;72952.78;5072745;28;20207;-77
2022/03/16 06:00:56;;;;;;;9.73;5.13;;;;;;;-145.69;100.00;72962.75;5073008;28;20203;-77
2022/03/16 06:03:22;;;;;;;14.07;5.17;;;;;;;-145.69;100.00;72950.81;5072735;28;20605;-78
2022/03/16 06:05:50;;;;;;;17.70;5.73;;;;;;;-145.69;100.00;72934.88;5072517;28;20233;-77
2022/03/16 06:08:17;;;;;;;14.50;6.03;;;;;;;-145.69;100.00;72909.00;5072354;28;20206;-78
2022/03/16 06:10:43;;;;;;;18.63;7.50;;;;;;;-145.69;100.00;72887.09;5072689;28;20203;-78
2022/03/16 06:13:09;;;;;;;21.43;7.00;;;;;;;-145.69;100.00;72873.19;5072452;28;20202;-78
2022/03/16 06:15:40;;;;;;;24.13;8.90;;;;;;;-145.69;100.00;72849.28;5072778;28;20207;-78
2022/03/16 06:18:07;;;;;;;22.53;8.43;;;;;;;-145.69;100.00;72823.41;5072478;28;20233;-78
2022/03/16 06:20:35;;;;;;;25.53;9.17;;;;;;;-145.69;100.00;72795.53;5072505;28;20229;-77
2022/03/16 06:23:05;;;;;;;19.83;8.77;;;;;;;-145.69;100.00;72787.56;5072402;28;20210;-77
2022/03/16 06:25:31;;;;;;;26.23;8.30;;;;;;;-145.69;100.00;72781.59;5055575;28;20281;-77
2022/03/16 06:27:58;;;;;;;24.00;8.03;;;;;;;-145.69;100.00;72773.66;5052296;28;20238;-78
2022/03/16 06:30:25;;;;;;;22.57;8.57;;;;;;;-145.69;100.00;72761.69;5055460;28;20559;-78
2022/03/16 06:32:52;;;;;;;24.80;8.53;;;;;;;-145.69;100.00;72751.75;5056156;28;20223;-77
2022/03/16 06:35:18;;;;;;;15.23;7.23;;;;;;;-145.69;100.00;72743.78;5056294;28;20211;-78
2022/03/16 06:37:46;;;;;;;26.77;8.70;;;;;;;-145.69;100.00;72731.84;5055955;28;20207;-78
2022/03/16 06:40:14;;;;;;;23.87;8.30;;;;;;;-145.69;100.00;72713.94;5056446;28;20196;-78
2022/03/16 06:42:53;;;;;;;21.57;8.67;;;;;;;-145.69;100.00;72682.09;5056303;28;20199;-77
2022/03/16 06:45:20;;;;;;;19.43;8.60;;;;;;;-145.69;100.00;72672.13;5055987;28;20578;-77
2022/03/16 06:47:47;;;;;;;20.80;8.57;;;;;;;-145.69;100.00;72656.22;5055891;28;20203;-77
2022/03/16 06:50:14;;;;;;;16.60;6.97;;;;;;;-145.69;100.00;72644.25;5055991;28;20207;-78
2022/03/16 06:52:40;;;;;;;14.77;7.03;;;;;;;-145.69;100.00;72628.34;5060707;28;20535;-78
2022/03/16 06:55:08;;;;;;;19.43;7.23;;;;;;;-145.69;100.00;72610.44;5075605;28;20198;-78
2022/03/16 06:57:36;;;;;;;15.90;6.93;;;;;;;-145.69;100.00;72592.50;5075466;28;20198;-77
2022/03/16 07:00:04;;;;;;;18.63;5.30;;;;;;;-145.69;100.00;72596.50;5075604;28;20650;-78
2022/03/16 07:02:31;;;;;;;16.87;5.83;;;;;;;-145.69;100.00;72584.56;5075844;28;20202;-78
2022/03/16 07:04:58;;;;;;;16.97;5.77;;;;;;;-145.69;100.00;72572.59;5075654;28;20231;-78
2022/03/16 07:07:26;;;;;;;10.73;5.83;;;;;;;-145.69;100.00;72548.72;5075456;28;20695;-78
2022/03/16 07:09:53;;;;;;;10.97;5.23;;;;;;;-145.69;100.00;72504.94;5075389;28;20252;-78
2022/03/16 07:12:19;;;;;;;16.73;6.03;;;;;;;-145.69;100.00;72508.91;5075355;28;20248;-78
2022/03/16 07:14:47;;;;;;;11.83;5.73;;;;;;;-145.69;100.00;72479.06;5075293;28;20235;-79
2022/03/16 07:17:13;;;;;;;20.07;9.20;;;;;;;-145.69;100.00;72469.09;5075626;28;20225;-78
2022/03/16 07:19:40;;;;;;;20.37;11.00;;;;;;;-145.69;100.00;72459.16;5075433;28;20199;-78
2022/03/16 07:22:06;;;;;;;21.63;9.53;;;;;;;-145.69;100.00;72453.19;5075090;28;20191;-79
2022/03/16 07:24:33;;;;;;;23.70;9.80;;;;;;;-145.69;100.00;72455.16;5074875;28;20241;-79
2022/03/16 07:27:03;;;;;;;22.27;10.50;;;;;;;-145.69;100.00;72449.19;5075194;28;20259;-79
2022/03/16 07:29:30;;;;;;;24.40;10.33;;;;;;;-145.69;100.00;72441.25;5074931;28;20199;-79
2022/03/16 07:31:57;;;;;;;20.37;9.07;;;;;;;-145.69;100.00;72437.25;5075349;28;20199;-79
2022/03/16 07:34:24;;;;;;;25.40;10.27;;;;;;;-145.69;100.00;72465.13;5075261;28;20229;-79
2022/03/16 07:36:51;;;;;;;27.57;9.50;;;;;;;-145.69;100.00;72469.09;5074909;28;20198;-79
2022/03/16 07:39:17;;;;;;;18.60;7.80;;;;;;;-145.69;100.00;72473.09;5074775;28;20207;-79
2022/03/16 07:41:44;;;;;;;15.07;6.47;;;;;;;-145.69;100.00;72471.09;5074497;28;20653;-79
2022/03/16 07:44:10;;;;;;;13.43;6.20;;;;;;;-145.69;100.00;72429.28;5074772;28;20194;-79
2022/03/16 07:46:37;;;;;;;32.70;14.30;;;;;;;-145.69;100.00;72423.31;5074762;28;20202;-79
2022/03/16 07:49:05;;;;;;;31.20;13.27;;;;;;;-145.69;100.00;72407.41;5074252;28;20203;-79
2022/03/16 07:51:31;;;;;;;25.50;10.67;;;;;;;-145.69;100.00;72417.34;5074654;28;20199;-79
2022/03/16 07:53:57;;;;;;;36.53;13.27;;;;;;;-145.69;100.00;72379.53;5074753;28;20222;-79
2022/03/16 07:56:24;;;;;;;34.00;13.77;;;;;;;-145.69;100.00;72355.66;5074485;28;20217;-79
2022/03/16 07:58:51;;;;;;;11.47;5.83;;;;;;;-145.69;100.00;72331.78;5074376;28;20207;-79
2022/03/16 08:01:17;;;;;;;7.97;4.80;;;;;;;-145.69;100.00;72313.84;5074422;28;20248;-79
2022/03/16 08:03:43;;;;;;;9.83;4.93;;;;;;;-145.69;100.00;72323.81;5074430;28;20256;-79
2022/03/16 08:06:11;;;;;;;11.17;5.23;;;;;;;-145.69;100.00;72325.81;5074175;28;20647;-79
2022/03/16 08:08:39;;;;;;;7.87;4.83;;;;;;;-145.69;100.00;72305.91;5074462;28;20332;-79
2022/03/16 08:11:05;;;;;;;15.43;6.43;;;;;;;-145.69;100.00;72315.84;5074027;28;20202;-79
2022/03/16 08:13:32;;;;;;;11.13;5.17;;;;;;;-145.69;100.00;72323.81;5073897;28;20234;-79
2022/03/16 08:15:58;;;;;;;13.93;5.17;;;;;;;-145.69;100.00;72321.81;5074323;28;20226;-79
2022/03/16 08:18:25;;;;;;;11.37;4.43;;;;;;;-145.69;100.00;72321.81;5074080;28;20225;-79
2022/03/16 08:20:51;;;;;;;15.27;5.33;;;;;;;-145.69;100.00;72282.00;5073820;28;20667;-79
2022/03/16 08:23:19;;;;;;;11.33;4.73;;;;;;;-145.69;100.00;72274.06;5073903;28;20195;-79
2022/03/16 08:25:46;;;;;;;13.20;5.20;;;;;;;-145.69;100.00;72309.88;5073813;28;20585;-79
2022/03/16 08:28:13;;;;;;;14.60;4.80;;;;;;;-145.69;100.00;72286.00;5073887;28;20268;-79
2022/03/16 08:30:40;;;;;;;14.07;4.83;;;;;;;-145.69;100.00;72238.22;5073828;28;20199;-80
2022/03/16 08:33:07;;;;;;;14.60;5.40;;;;;;;-145.69;100.00;72198.41;5063921;28;20203;-80
2022/03/16 08:35:34;;;;;;;14.83;6.03;;;;;;;-145.69;100.00;72234.25;5053751;28;20203;-79
2022/03/16 08:38:00;;;;;;;12.63;6.43;;;;;;;-145.69;100.00;72236.22;5053526;28;20203;-79
2022/03/16 08:40:28;;;;;;;11.60;6.70;;;;;;;-145.69;100.00;72184.50;5072515;28;20248;-79
2022/03/16 08:42:54;;;;;;;13.57;5.47;;;;;;;-145.69;100.00;72168.56;5073690;28;20201;-79
2022/03/16 08:45:21;;;;;;;9.70;4.33;;;;;;;-145.69;100.00;72134.72;5073513;28;20230;-79
2022/03/16 08:47:47;;;;;;;10.23;5.17;;;;;;;-145.69;100.00;72124.78;5073615;28;20199;-79
2022/03/16 08:50:14;;;;;;;13.83;5.67;;;;;;;-145.69;100.00;72092.94;5073431;28;20210;-78
2022/03/16 08:52:40;;;;;;;15.77;5.30;;;;;;;-145.69;98.64;72071.03;5072802;28;20256;-79
2022/03/16 08:55:08;;;;;;;13.63;5.47;;;;;;;-145.69;96.63;72045.16;5069678;28;20207;-78
2022/03/16 08:57:35;;;;;;;9.90;5.03;;;;;;;-145.69;96.84;72033.22;5073412;28;20206;-79
2022/03/16 09:00:02;;;;;;;12.23;4.97;;;;;;;-145.69;96.96;72015.31;5073274;28;20649;-78
2022/03/16 09:02:28;;;;;;;11.37;4.93;;;;;;;-145.69;95.58;72039.19;5073219;28;20585;-79
2022/03/16 09:04:55;;;;;;;12.03;5.23;;;;;;;-145.69;99.54;72067.06;5073328;28;20222;-78
2022/03/16 09:07:21;;;;;;;10.73;5.63;;;;;;;-145.69;99.30;72071.03;5072963;28;20198;-79
2022/03/16 09:09:48;;;;;;;13.23;5.50;;;;;;;-145.69;99.17;72071.03;5073025;28;20623;-78
2022/03/16 09:12:15;;;;;;;11.07;6.00;;;;;;;-145.69;97.38;72021.28;5073001;28;20206;-78
2022/03/16 09:14:43;;;;;;;12.50;5.27;;;;;;;-145.69;95.18;71997.41;5072642;28;20709;-79
2022/03/16 09:17:11;;;;;;;12.73;4.60;;;;;;;-145.69;94.01;71977.50;5071832;28;20198;-79
2022/03/16 09:19:37;;;;;;;7.75;4.60;;;;;;;-145.69;94.39;71959.59;5072793;28;20222;-79
2022/03/16 09:22:04;;;;;;;12.80;5.97;;;;;;;-145.69;92.70;71927.75;5072675;28;20205;-78
2022/03/16 09:24:32;;;;;;;12.90;6.10;;;;;;;-145.69;89.21;71907.84;5072936;28;20198;-79
2022/03/16 09:26:58;;;;;;;16.23;5.83;;;;;;;-145.69;92.27;71939.69;5072793;28;20238;-79
2022/03/16 09:29:24;;;;;;;14.35;6.13;;;;;;;-145.69;94.18;71955.63;5072772;28;20654;-79
2022/03/16 09:31:52;;;;;;;16.88;6.28;;;;;;;-145.69;93.86;71977.50;5072984;28;20202;-79
2022/03/16 09:34:19;;;;;;;12.73;6.07;;;;;;;-145.69;92.20;71991.44;5072655;28;20202;-80
2022/03/16 09:36:45;;;;;;;10.67;6.10;;;;;;;-145.69;92.95;71963.56;5072948;28;20205;-79
2022/03/16 09:39:12;;;;;;;11.23;6.13;;;;;;;-145.69;94.29;71967.56;5072931;28;20286;-80
2022/03/16 09:41:38;;;;;;;9.77;6.30;;;;;;;-145.69;90.04;71935.72;5072773;28;20205;-79
2022/03/16 09:44:06;;;;;;;11.77;5.77;;;;;;;-145.69;93.58;72037.22;5072733;28;20202;-79
2022/03/16 09:46:34;;;;;;;11.50;6.07;;;;;;;-145.69;97.13;72011.34;5072572;28;20287;-79
2022/03/16 09:49:03;;;;;;;14.50;6.23;;;;;;;-145.69;94.76;72007.34;5072761;28;20297;-79
2022/03/16 09:51:34;;;;;;;13.07;6.23;;;;;;;-145.69;92.21;71995.41;5072544;28;20884;-79
2022/03/16 09:54:01;;;;;;;11.90;6.13;;;;;;;-145.69;94.93;72015.31;5072630;28;20280;-79
2022/03/16 09:56:27;;;;;;;12.27;6.47;;;;;;;-145.69;99.39;72005.38;5072701;28;20570;-79
2022/03/16 09:58:54;;;;;;;14.70;5.50;;;;;;;-145.69;91.45;71981.50;5072650;28;20226;-79
2022/03/16 10:01:20;;;;;;;14.83;6.40;;;;;;;-145.69;95.06;71995.41;5072503;28;20210;-79
2022/03/16 10:03:48;;;;;;;10.07;6.70;;;;;;;-145.69;96.00;71973.53;5073339;28;20199;-79
2022/03/16 10:06:17;;;;;;;12.37;6.83;;;;;;;-145.69;93.46;71939.69;5076386;28;20299;-78
2022/03/16 10:13:13;;;;;;;14.80;7.03;;;;;;;-145.69;91.56;71939.69;5069150;28;20199;-77
2022/03/16 10:14:24;;;;;;;16.50;6.63;;;;;;;-145.69;89.06;71907.84;5018842;28;20644;-78
2022/03/16 10:19:49;;;;;;;11.50;6.90;;;;;;;-145.69;89.96;71951.63;5076114;28;20210;-78
2022/03/16 10:22:26;;;;;;;18.60;7.35;;;;;;;-145.69;94.88;71985.47;5075537;28;20709;-78
2022/03/16 10:24:54;;;;;;;12.23;7.35;;;;;;;-145.69;96.92;71991.44;5075935;28;20831;-79
2022/03/16 10:27:21;;;;;;;13.63;7.37;;;;;;;-145.69;95.42;71965.56;5075441;28;20233;-79
2022/03/16 10:29:50;;;;;;;17.10;6.93;;;;;;;-145.69;96.07;71995.41;5076168;28;20215;-79
2022/03/16 10:32:17;;;;;;;23.98;7.40;;;;;;;-145.69;93.12;71979.50;5069948;28;20222;-79
2022/03/16 10:34:50;;;;;;;12.97;7.50;;;;;;;-145.69;95.20;71995.41;5056057;28;20677;-79
2022/03/16 10:37:20;;;;;;;16.53;7.03;;;;;;;-145.69;91.96;71961.59;5056071;28;20208;-79
2022/03/16 10:39:50;;;;;;;16.10;7.63;;;;;;;-145.69;94.85;71969.53;5056255;28;20299;-79
2022/03/16 10:47:58;;;;;;;13.40;7.70;;;;;;;-145.69;90.48;71943.69;5055803;28;20207;-79
2022/03/16 10:50:24;;;;;;;15.53;8.00;;;;;;;-145.69;90.22;71927.75;5055663;28;20213;-79
2022/03/16 10:52:51;;;;;;;15.33;7.30;;;;;;;-145.69;91.69;71939.69;5055579;28;20208;-79
2022/03/16 10:55:20;;;;;;;16.70;7.70;;;;;;;-145.69;92.02;71889.94;5055446;28;20199;-79
2022/03/16 10:57:49;;;;;;;13.70;7.40;;;;;;;-145.69;89.06;71895.91;5055351;28;20558;-79
2022/03/16 11:00:16;;;;;;;14.57;7.47;;;;;;;-145.69;87.00;71844.16;5055522;28;20196;-80
2022/03/16 11:02:45;;;;;;;15.50;7.20;;;;;;;-145.69;87.94;71905.88;5055252;28;20693;-79
2022/03/16 11:05:12;;;;;;;13.93;7.43;;;;;;;-145.69;85.26;71876.00;5055189;28;20536;-79
2022/03/16 11:07:40;;;;;;;16.02;7.90;;;;;;;-145.69;84.51;71830.25;5055374;28;20208;-79
2022/03/16 11:10:08;;;;;;;14.75;8.15;;;;;;;-145.69;85.65;71864.06;5055019;28;20786;-79
2022/03/16 11:15:22;;;;;;;15.82;8.48;;;;;;;-145.69;85.93;71858.09;5053948;28;20242;-79
2022/03/16 11:17:48;;;;;;;14.93;8.30;;;;;;;-145.69;89.19;71876.00;5052982;28;20605;-79